sensor_id;sensor_type;location;lat;lon;timestamp;P1;durP1;ratioP1;P2;durP2;ratioP2
8104;SDS011;4095;48.942;9.104;2023-05-01T00:01:36;9.83;;;8.80;;
8104;SDS011;4095;48.942;9.104;2023-05-01T00:04:01;12.00;;;8.60;;
8104;SDS011;4095;48.942;9.104;2023-05-01T00:06:27;9.93;;;9.03;;
8104;SDS011;4095;48.942;9.104;2023-05-01T00:08:53;9.13;;;8.33;;
8104;SDS011;4095;48.942;9.104;2023-05-01T00:11:19;10.33;;;9.30;;
8104;SDS011;4095;48.942;9.104;2023-05-01T00:13:44;10.03;;;9.03;;
8104;SDS011;4095;48.942;9.104;2023-05-01T00:16:11;10.63;;;8.83;;
8104;SDS011;4095;48.942;9.104;2023-05-01T00:18:37;9.60;;;8.70;;
8104;SDS011;4095;48.942;9.104;2023-05-01T00:21:03;9.73;;;8.83;;
8104;SDS011;4095;48.942;9.104;2023-05-01T00:23:28;9.90;;;8.93;;
8104;SDS011;4095;48.942;9.104;2023-05-01T00:25:54;9.30;;;8.40;;
8104;SDS011;4095;48.942;9.104;2023-05-01T00:28:21;9.67;;;8.77;;
8104;SDS011;4095;48.942;9.104;2023-05-01T00:30:46;10.53;;;9.47;;
8104;SDS011;4095;48.942;9.104;2023-05-01T00:33:12;9.60;;;8.70;;
8104;SDS011;4095;48.942;9.104;2023-05-01T00:35:37;9.90;;;9.00;;
8104;SDS011;4095;48.942;9.104;2023-05-01T00:38:03;10.70;;;9.70;;
8104;SDS011;4095;48.942;9.104;2023-05-01T00:40:29;9.97;;;9.00;;
8104;SDS011;4095;48.942;9.104;2023-05-01T00:42:55;10.43;;;9.43;;
8104;SDS011;4095;48.942;9.104;2023-05-01T00:45:21;10.80;;;9.73;;
8104;SDS011;4095;48.942;9.104;2023-05-01T00:47:46;10.20;;;9.20;;
8104;SDS011;4095;48.942;9.104;2023-05-01T00:50:12;11.47;;;9.97;;
8104;SDS011;4095;48.942;9.104;2023-05-01T00:52:38;10.90;;;9.80;;
8104;SDS011;4095;48.942;9.104;2023-05-01T00:55:03;10.63;;;9.53;;
8104;SDS011;4095;48.942;9.104;2023-05-01T00:57:30;10.77;;;9.77;;
8104;SDS011;4095;48.942;9.104;2023-05-01T00:59:56;10.47;;;9.37;;
8104;SDS011;4095;48.942;9.104;2023-05-01T01:02:22;12.17;;;10.67;;
8104;SDS011;4095;48.942;9.104;2023-05-01T01:04:48;10.37;;;9.23;;
8104;SDS011;4095;48.942;9.104;2023-05-01T01:10:22;10.90;;;9.80;;
8104;SDS011;4095;48.942;9.104;2023-05-01T01:13:08;9.70;;;8.30;;
8104;SDS011;4095;48.942;9.104;2023-05-01T01:15:44;9.50;;;8.60;;
8104;SDS011;4095;48.942;9.104;2023-05-01T01:19:24;9.43;;;8.63;;
8104;SDS011;4095;48.942;9.104;2023-05-01T01:21:34;9.60;;;8.70;;
8104;SDS011;4095;48.942;9.104;2023-05-01T01:29:31;9.67;;;8.77;;
8104;SDS011;4095;48.942;9.104;2023-05-01T01:35:17;9.70;;;8.70;;
8104;SDS011;4095;48.942;9.104;2023-05-01T01:40:16;9.97;;;8.97;;
8104;SDS011;4095;48.942;9.104;2023-05-01T01:42:48;9.83;;;8.83;;
8104;SDS011;4095;48.942;9.104;2023-05-01T01:45:35;10.97;;;9.70;;
8104;SDS011;4095;48.942;9.104;2023-05-01T01:48:04;12.10;;;9.43;;
8104;SDS011;4095;48.942;9.104;2023-05-01T01:50:33;10.50;;;9.30;;
8104;SDS011;4095;48.942;9.104;2023-05-01T01:53:03;12.17;;;9.70;;
8104;SDS011;4095;48.942;9.104;2023-05-01T01:55:30;9.90;;;8.90;;
8104;SDS011;4095;48.942;9.104;2023-05-01T01:57:59;10.17;;;9.20;;
8104;SDS011;4095;48.942;9.104;2023-05-01T02:00:26;10.30;;;9.40;;
8104;SDS011;4095;48.942;9.104;2023-05-01T02:02:52;9.70;;;8.77;;
8104;SDS011;4095;48.942;9.104;2023-05-01T02:05:19;9.90;;;8.90;;
8104;SDS011;4095;48.942;9.104;2023-05-01T02:07:46;10.10;;;9.10;;
8104;SDS011;4095;48.942;9.104;2023-05-01T02:10:14;10.07;;;9.07;;
8104;SDS011;4095;48.942;9.104;2023-05-01T02:12:41;11.03;;;10.03;;
8104;SDS011;4095;48.942;9.104;2023-05-01T02:15:10;11.03;;;9.80;;
8104;SDS011;4095;48.942;9.104;2023-05-01T02:17:37;9.70;;;8.87;;
8104;SDS011;4095;48.942;9.104;2023-05-01T02:20:05;11.67;;;8.93;;
8104;SDS011;4095;48.942;9.104;2023-05-01T02:22:33;10.43;;;9.33;;
8104;SDS011;4095;48.942;9.104;2023-05-01T02:25:00;10.27;;;9.27;;
8104;SDS011;4095;48.942;9.104;2023-05-01T02:27:32;10.90;;;9.80;;
8104;SDS011;4095;48.942;9.104;2023-05-01T02:30:00;10.20;;;9.20;;
8104;SDS011;4095;48.942;9.104;2023-05-01T02:32:25;11.17;;;10.07;;
8104;SDS011;4095;48.942;9.104;2023-05-01T02:34:52;10.40;;;9.40;;
8104;SDS011;4095;48.942;9.104;2023-05-01T02:37:18;10.10;;;9.10;;
8104;SDS011;4095;48.942;9.104;2023-05-01T02:39:44;11.10;;;9.90;;
8104;SDS011;4095;48.942;9.104;2023-05-01T02:42:10;10.13;;;9.10;;
8104;SDS011;4095;48.942;9.104;2023-05-01T02:44:43;10.40;;;9.47;;
8104;SDS011;4095;48.942;9.104;2023-05-01T02:47:15;10.43;;;9.27;;
8104;SDS011;4095;48.942;9.104;2023-05-01T02:49:44;10.03;;;9.03;;
8104;SDS011;4095;48.942;9.104;2023-05-01T02:52:11;9.30;;;8.50;;
8104;SDS011;4095;48.942;9.104;2023-05-01T02:54:38;9.17;;;8.37;;
8104;SDS011;4095;48.942;9.104;2023-05-01T02:57:04;11.63;;;9.40;;
8104;SDS011;4095;48.942;9.104;2023-05-01T02:59:30;10.40;;;9.40;;
8104;SDS011;4095;48.942;9.104;2023-05-01T03:01:56;10.40;;;9.40;;
8104;SDS011;4095;48.942;9.104;2023-05-01T03:04:22;10.60;;;9.50;;
8104;SDS011;4095;48.942;9.104;2023-05-01T03:06:47;10.87;;;9.73;;
8104;SDS011;4095;48.942;9.104;2023-05-01T03:09:13;11.10;;;9.77;;
8104;SDS011;4095;48.942;9.104;2023-05-01T03:11:38;10.67;;;9.57;;
8104;SDS011;4095;48.942;9.104;2023-05-01T03:14:04;10.03;;;9.13;;
8104;SDS011;4095;48.942;9.104;2023-05-01T03:16:30;12.40;;;9.20;;
8104;SDS011;4095;48.942;9.104;2023-05-01T03:18:56;10.37;;;9.27;;
8104;SDS011;4095;48.942;9.104;2023-05-01T03:21:21;10.17;;;9.17;;
8104;SDS011;4095;48.942;9.104;2023-05-01T03:23:47;9.97;;;9.07;;
8104;SDS011;4095;48.942;9.104;2023-05-01T03:26:13;9.83;;;8.93;;
8104;SDS011;4095;48.942;9.104;2023-05-01T03:28:39;10.20;;;9.30;;
8104;SDS011;4095;48.942;9.104;2023-05-01T03:31:04;10.30;;;9.07;;
8104;SDS011;4095;48.942;9.104;2023-05-01T03:33:30;9.60;;;8.70;;
8104;SDS011;4095;48.942;9.104;2023-05-01T03:35:59;11.20;;;9.93;;
8104;SDS011;4095;48.942;9.104;2023-05-01T03:38:27;10.60;;;9.60;;
8104;SDS011;4095;48.942;9.104;2023-05-01T03:40:52;10.87;;;9.77;;
8104;SDS011;4095;48.942;9.104;2023-05-01T03:43:18;10.60;;;9.63;;
8104;SDS011;4095;48.942;9.104;2023-05-01T03:45:43;11.20;;;10.10;;
8104;SDS011;4095;48.942;9.104;2023-05-01T03:48:09;11.07;;;9.57;;
8104;SDS011;4095;48.942;9.104;2023-05-01T03:50:35;10.63;;;9.53;;
8104;SDS011;4095;48.942;9.104;2023-05-01T03:53:00;10.53;;;9.43;;
8104;SDS011;4095;48.942;9.104;2023-05-01T03:55:26;10.67;;;9.40;;
8104;SDS011;4095;48.942;9.104;2023-05-01T03:57:51;11.73;;;9.90;;
8104;SDS011;4095;48.942;9.104;2023-05-01T04:00:18;11.37;;;10.27;;
8104;SDS011;4095;48.942;9.104;2023-05-01T04:02:43;10.50;;;9.40;;
8104;SDS011;4095;48.942;9.104;2023-05-01T04:05:09;11.40;;;10.30;;
8104;SDS011;4095;48.942;9.104;2023-05-01T04:07:34;11.70;;;10.50;;
8104;SDS011;4095;48.942;9.104;2023-05-01T04:10:01;11.87;;;10.77;;
8104;SDS011;4095;48.942;9.104;2023-05-01T04:12:26;11.40;;;10.23;;
8104;SDS011;4095;48.942;9.104;2023-05-01T04:14:52;11.80;;;10.47;;
8104;SDS011;4095;48.942;9.104;2023-05-01T04:17:17;12.30;;;11.10;;
8104;SDS011;4095;48.942;9.104;2023-05-01T04:19:43;34.83;;;24.63;;
8104;SDS011;4095;48.942;9.104;2023-05-01T04:22:09;10.93;;;9.83;;
8104;SDS011;4095;48.942;9.104;2023-05-01T04:24:34;10.77;;;9.67;;
8104;SDS011;4095;48.942;9.104;2023-05-01T04:27:00;11.30;;;10.10;;
8104;SDS011;4095;48.942;9.104;2023-05-01T04:29:26;11.93;;;10.60;;
8104;SDS011;4095;48.942;9.104;2023-05-01T04:31:51;11.80;;;10.47;;
8104;SDS011;4095;48.942;9.104;2023-05-01T04:34:17;11.47;;;10.33;;
8104;SDS011;4095;48.942;9.104;2023-05-01T04:36:43;11.63;;;10.43;;
8104;SDS011;4095;48.942;9.104;2023-05-01T04:39:09;11.27;;;10.17;;
8104;SDS011;4095;48.942;9.104;2023-05-01T04:41:34;10.73;;;9.77;;
8104;SDS011;4095;48.942;9.104;2023-05-01T04:44:00;12.17;;;9.97;;
8104;SDS011;4095;48.942;9.104;2023-05-01T04:46:25;11.50;;;10.40;;
8104;SDS011;4095;48.942;9.104;2023-05-01T04:48:51;12.00;;;10.77;;
8104;SDS011;4095;48.942;9.104;2023-05-01T04:51:17;12.97;;;10.77;;
8104;SDS011;4095;48.942;9.104;2023-05-01T04:53:43;11.30;;;10.10;;
8104;SDS011;4095;48.942;9.104;2023-05-01T04:56:09;11.20;;;10.10;;
8104;SDS011;4095;48.942;9.104;2023-05-01T04:58:34;10.90;;;9.83;;
8104;SDS011;4095;48.942;9.104;2023-05-01T05:01:00;13.03;;;11.10;;
8104;SDS011;4095;48.942;9.104;2023-05-01T05:03:25;11.67;;;10.60;;
8104;SDS011;4095;48.942;9.104;2023-05-01T05:05:51;11.43;;;10.43;;
8104;SDS011;4095;48.942;9.104;2023-05-01T05:08:17;11.83;;;10.63;;
8104;SDS011;4095;48.942;9.104;2023-05-01T05:10:42;10.67;;;9.70;;
8104;SDS011;4095;48.942;9.104;2023-05-01T05:13:08;11.77;;;10.57;;
8104;SDS011;4095;48.942;9.104;2023-05-01T05:15:34;12.30;;;11.13;;
8104;SDS011;4095;48.942;9.104;2023-05-01T05:17:59;11.27;;;10.27;;
8104;SDS011;4095;48.942;9.104;2023-05-01T05:20:25;11.63;;;10.47;;
8104;SDS011;4095;48.942;9.104;2023-05-01T05:22:51;11.80;;;10.60;;
8104;SDS011;4095;48.942;9.104;2023-05-01T05:25:16;11.20;;;10.17;;
8104;SDS011;4095;48.942;9.104;2023-05-01T05:27:42;11.67;;;10.67;;
8104;SDS011;4095;48.942;9.104;2023-05-01T05:30:08;11.00;;;9.90;;
8104;SDS011;4095;48.942;9.104;2023-05-01T05:32:34;11.77;;;10.53;;
8104;SDS011;4095;48.942;9.104;2023-05-01T05:35:00;11.23;;;9.83;;
8104;SDS011;4095;48.942;9.104;2023-05-01T05:37:26;11.70;;;10.60;;
8104;SDS011;4095;48.942;9.104;2023-05-01T05:39:51;10.90;;;9.90;;
8104;SDS011;4095;48.942;9.104;2023-05-01T05:42:17;11.70;;;10.50;;
8104;SDS011;4095;48.942;9.104;2023-05-01T05:44:42;11.47;;;10.30;;
8104;SDS011;4095;48.942;9.104;2023-05-01T05:47:08;12.20;;;10.77;;
8104;SDS011;4095;48.942;9.104;2023-05-01T05:49:33;10.83;;;9.83;;
8104;SDS011;4095;48.942;9.104;2023-05-01T05:51:59;11.17;;;10.10;;
8104;SDS011;4095;48.942;9.104;2023-05-01T05:54:25;11.53;;;10.43;;
8104;SDS011;4095;48.942;9.104;2023-05-01T05:56:50;12.07;;;10.93;;
8104;SDS011;4095;48.942;9.104;2023-05-01T05:59:16;11.30;;;10.20;;
8104;SDS011;4095;48.942;9.104;2023-05-01T06:01:42;11.77;;;10.57;;
8104;SDS011;4095;48.942;9.104;2023-05-01T06:04:08;11.93;;;10.83;;
8104;SDS011;4095;48.942;9.104;2023-05-01T06:06:35;11.73;;;10.57;;
8104;SDS011;4095;48.942;9.104;2023-05-01T06:09:01;11.23;;;10.07;;
8104;SDS011;4095;48.942;9.104;2023-05-01T06:11:27;11.20;;;10.20;;
8104;SDS011;4095;48.942;9.104;2023-05-01T06:13:53;11.37;;;10.17;;
8104;SDS011;4095;48.942;9.104;2023-05-01T06:16:18;11.73;;;10.53;;
8104;SDS011;4095;48.942;9.104;2023-05-01T06:18:44;11.47;;;10.37;;
8104;SDS011;4095;48.942;9.104;2023-05-01T06:21:09;12.47;;;11.37;;
8104;SDS011;4095;48.942;9.104;2023-05-01T06:23:35;12.07;;;10.43;;
8104;SDS011;4095;48.942;9.104;2023-05-01T06:26:01;11.33;;;10.20;;
8104;SDS011;4095;48.942;9.104;2023-05-01T06:28:26;11.87;;;10.73;;
8104;SDS011;4095;48.942;9.104;2023-05-01T06:30:52;11.80;;;10.63;;
8104;SDS011;4095;48.942;9.104;2023-05-01T06:33:17;11.37;;;10.20;;
8104;SDS011;4095;48.942;9.104;2023-05-01T06:35:43;11.43;;;10.33;;
8104;SDS011;4095;48.942;9.104;2023-05-01T06:38:09;12.20;;;11.00;;
8104;SDS011;4095;48.942;9.104;2023-05-01T06:40:34;11.93;;;10.83;;
8104;SDS011;4095;48.942;9.104;2023-05-01T06:43:01;11.87;;;10.63;;
8104;SDS011;4095;48.942;9.104;2023-05-01T06:45:27;13.40;;;12.10;;
8104;SDS011;4095;48.942;9.104;2023-05-01T06:47:52;12.90;;;11.70;;
8104;SDS011;4095;48.942;9.104;2023-05-01T06:50:18;12.83;;;11.73;;
8104;SDS011;4095;48.942;9.104;2023-05-01T06:52:44;13.37;;;12.07;;
8104;SDS011;4095;48.942;9.104;2023-05-01T06:55:09;12.80;;;11.50;;
8104;SDS011;4095;48.942;9.104;2023-05-01T06:57:36;13.17;;;11.90;;
8104;SDS011;4095;48.942;9.104;2023-05-01T07:00:02;12.47;;;11.37;;
8104;SDS011;4095;48.942;9.104;2023-05-01T07:02:28;11.97;;;10.77;;
8104;SDS011;4095;48.942;9.104;2023-05-01T07:04:53;11.67;;;10.50;;
8104;SDS011;4095;48.942;9.104;2023-05-01T07:07:19;11.10;;;9.97;;
8104;SDS011;4095;48.942;9.104;2023-05-01T07:09:44;10.63;;;9.63;;
8104;SDS011;4095;48.942;9.104;2023-05-01T07:12:10;11.57;;;10.33;;
8104;SDS011;4095;48.942;9.104;2023-05-01T07:14:36;10.30;;;9.40;;
8104;SDS011;4095;48.942;9.104;2023-05-01T07:17:02;10.90;;;9.90;;
8104;SDS011;4095;48.942;9.104;2023-05-01T07:19:27;10.80;;;9.80;;
8104;SDS011;4095;48.942;9.104;2023-05-01T07:21:53;10.70;;;9.60;;
8104;SDS011;4095;48.942;9.104;2023-05-01T07:24:18;10.70;;;9.70;;
8104;SDS011;4095;48.942;9.104;2023-05-01T07:26:45;10.23;;;9.23;;
8104;SDS011;4095;48.942;9.104;2023-05-01T07:29:10;9.40;;;8.40;;
8104;SDS011;4095;48.942;9.104;2023-05-01T07:31:37;9.30;;;8.50;;
8104;SDS011;4095;48.942;9.104;2023-05-01T07:34:03;9.23;;;8.37;;
8104;SDS011;4095;48.942;9.104;2023-05-01T07:36:28;9.27;;;8.37;;
8104;SDS011;4095;48.942;9.104;2023-05-01T07:38:54;9.43;;;8.53;;
8104;SDS011;4095;48.942;9.104;2023-05-01T07:41:21;9.50;;;8.67;;
8104;SDS011;4095;48.942;9.104;2023-05-01T07:43:49;9.17;;;8.30;;
8104;SDS011;4095;48.942;9.104;2023-05-01T07:46:14;8.97;;;8.07;;
8104;SDS011;4095;48.942;9.104;2023-05-01T07:48:41;8.73;;;7.87;;
8104;SDS011;4095;48.942;9.104;2023-05-01T07:51:06;9.00;;;8.20;;
8104;SDS011;4095;48.942;9.104;2023-05-01T07:53:32;9.47;;;8.57;;
8104;SDS011;4095;48.942;9.104;2023-05-01T07:56:07;9.90;;;8.77;;
8104;SDS011;4095;48.942;9.104;2023-05-01T07:58:33;9.83;;;8.83;;
8104;SDS011;4095;48.942;9.104;2023-05-01T08:01:01;10.03;;;9.00;;
8104;SDS011;4095;48.942;9.104;2023-05-01T08:03:27;9.40;;;8.50;;
8104;SDS011;4095;48.942;9.104;2023-05-01T08:05:54;9.60;;;8.53;;
8104;SDS011;4095;48.942;9.104;2023-05-01T08:08:20;10.60;;;8.57;;
8104;SDS011;4095;48.942;9.104;2023-05-01T08:10:46;9.50;;;8.53;;
8104;SDS011;4095;48.942;9.104;2023-05-01T08:13:12;9.17;;;8.37;;
8104;SDS011;4095;48.942;9.104;2023-05-01T08:15:38;7.87;;;7.00;;
8104;SDS011;4095;48.942;9.104;2023-05-01T08:18:06;8.93;;;8.10;;
8104;SDS011;4095;48.942;9.104;2023-05-01T08:20:32;8.20;;;7.47;;
8104;SDS011;4095;48.942;9.104;2023-05-01T08:22:59;8.53;;;7.73;;
8104;SDS011;4095;48.942;9.104;2023-05-01T08:25:24;8.40;;;7.70;;
8104;SDS011;4095;48.942;9.104;2023-05-01T08:27:50;8.60;;;7.80;;
8104;SDS011;4095;48.942;9.104;2023-05-01T08:30:16;9.30;;;7.73;;
8104;SDS011;4095;48.942;9.104;2023-05-01T08:32:41;8.83;;;7.63;;
8104;SDS011;4095;48.942;9.104;2023-05-01T08:35:07;7.60;;;6.90;;
8104;SDS011;4095;48.942;9.104;2023-05-01T08:37:33;8.53;;;7.50;;
8104;SDS011;4095;48.942;9.104;2023-05-01T08:39:59;7.10;;;6.50;;
8104;SDS011;4095;48.942;9.104;2023-05-01T08:42:24;7.37;;;6.40;;
8104;SDS011;4095;48.942;9.104;2023-05-01T08:44:51;7.67;;;6.97;;
8104;SDS011;4095;48.942;9.104;2023-05-01T08:47:22;6.97;;;6.27;;
8104;SDS011;4095;48.942;9.104;2023-05-01T08:49:49;8.10;;;6.47;;
8104;SDS011;4095;48.942;9.104;2023-05-01T08:52:16;8.17;;;6.70;;
8104;SDS011;4095;48.942;9.104;2023-05-01T08:54:44;6.50;;;5.90;;
8104;SDS011;4095;48.942;9.104;2023-05-01T08:57:12;6.37;;;5.83;;
8104;SDS011;4095;48.942;9.104;2023-05-01T08:59:38;7.37;;;6.33;;
8104;SDS011;4095;48.942;9.104;2023-05-01T09:02:05;6.70;;;6.10;;
8104;SDS011;4095;48.942;9.104;2023-05-01T09:04:33;6.40;;;5.80;;
8104;SDS011;4095;48.942;9.104;2023-05-01T09:07:01;6.70;;;6.10;;
8104;SDS011;4095;48.942;9.104;2023-05-01T09:09:28;6.57;;;5.93;;
8104;SDS011;4095;48.942;9.104;2023-05-01T09:12:17;6.53;;;5.93;;
8104;SDS011;4095;48.942;9.104;2023-05-01T09:14:39;7.80;;;6.40;;
8104;SDS011;4095;48.942;9.104;2023-05-01T09:17:05;6.57;;;5.97;;
8104;SDS011;4095;48.942;9.104;2023-05-01T09:19:31;7.13;;;6.43;;
8104;SDS011;4095;48.942;9.104;2023-05-01T09:21:56;6.20;;;5.60;;
8104;SDS011;4095;48.942;9.104;2023-05-01T09:24:25;7.90;;;5.90;;
8104;SDS011;4095;48.942;9.104;2023-05-01T09:26:51;6.10;;;5.50;;
8104;SDS011;4095;48.942;9.104;2023-05-01T09:32:21;6.00;;;5.50;;
8104;SDS011;4095;48.942;9.104;2023-05-01T09:35:10;7.03;;;5.70;;
8104;SDS011;4095;48.942;9.104;2023-05-01T09:37:38;5.90;;;5.40;;
8104;SDS011;4095;48.942;9.104;2023-05-01T09:40:07;6.40;;;5.80;;
8104;SDS011;4095;48.942;9.104;2023-05-01T09:42:38;6.30;;;5.70;;
8104;SDS011;4095;48.942;9.104;2023-05-01T09:45:06;6.47;;;5.83;;
8104;SDS011;4095;48.942;9.104;2023-05-01T09:47:40;6.23;;;5.63;;
8104;SDS011;4095;48.942;9.104;2023-05-01T09:50:07;7.50;;;6.17;;
8104;SDS011;4095;48.942;9.104;2023-05-01T09:52:34;6.47;;;5.87;;
8104;SDS011;4095;48.942;9.104;2023-05-01T09:55:15;7.40;;;5.93;;
8104;SDS011;4095;48.942;9.104;2023-05-01T09:57:43;6.53;;;5.50;;
8104;SDS011;4095;48.942;9.104;2023-05-01T10:00:10;6.63;;;5.80;;
8104;SDS011;4095;48.942;9.104;2023-05-01T10:02:40;6.20;;;5.60;;
8104;SDS011;4095;48.942;9.104;2023-05-01T10:05:08;5.93;;;5.43;;
8104;SDS011;4095;48.942;9.104;2023-05-01T10:07:34;6.10;;;5.60;;
8104;SDS011;4095;48.942;9.104;2023-05-01T10:10:16;6.43;;;5.77;;
8104;SDS011;4095;48.942;9.104;2023-05-01T10:12:46;6.10;;;5.60;;
8104;SDS011;4095;48.942;9.104;2023-05-01T10:15:12;6.00;;;5.40;;
8104;SDS011;4095;48.942;9.104;2023-05-01T10:17:38;5.90;;;5.30;;
8104;SDS011;4095;48.942;9.104;2023-05-01T10:20:06;5.77;;;5.23;;
8104;SDS011;4095;48.942;9.104;2023-05-01T10:22:33;5.87;;;5.37;;
8104;SDS011;4095;48.942;9.104;2023-05-01T10:24:59;5.93;;;5.43;;
8104;SDS011;4095;48.942;9.104;2023-05-01T10:27:25;8.60;;;5.90;;
8104;SDS011;4095;48.942;9.104;2023-05-01T10:29:52;5.87;;;5.37;;
8104;SDS011;4095;48.942;9.104;2023-05-01T10:32:18;5.83;;;5.23;;
8104;SDS011;4095;48.942;9.104;2023-05-01T10:34:56;6.20;;;5.70;;
8104;SDS011;4095;48.942;9.104;2023-05-01T10:37:42;6.57;;;5.87;;
8104;SDS011;4095;48.942;9.104;2023-05-01T10:46:25;6.40;;;5.80;;
8104;SDS011;4095;48.942;9.104;2023-05-01T10:53:44;5.83;;;5.20;;
8104;SDS011;4095;48.942;9.104;2023-05-01T11:01:37;6.07;;;5.40;;
8104;SDS011;4095;48.942;9.104;2023-05-01T11:06:32;7.00;;;5.40;;
8104;SDS011;4095;48.942;9.104;2023-05-01T11:08:58;6.30;;;5.70;;
8104;SDS011;4095;48.942;9.104;2023-05-01T11:13:57;6.10;;;5.43;;
8104;SDS011;4095;48.942;9.104;2023-05-01T11:19:01;6.53;;;5.53;;
8104;SDS011;4095;48.942;9.104;2023-05-01T11:21:28;5.60;;;5.10;;
8104;SDS011;4095;48.942;9.104;2023-05-01T11:23:54;5.87;;;5.30;;
8104;SDS011;4095;48.942;9.104;2023-05-01T11:26:20;5.47;;;4.97;;
8104;SDS011;4095;48.942;9.104;2023-05-01T11:28:47;5.77;;;5.13;;
8104;SDS011;4095;48.942;9.104;2023-05-01T11:31:16;6.10;;;5.10;;
8104;SDS011;4095;48.942;9.104;2023-05-01T11:33:42;5.57;;;5.07;;
8104;SDS011;4095;48.942;9.104;2023-05-01T11:36:08;5.67;;;5.07;;
8104;SDS011;4095;48.942;9.104;2023-05-01T11:38:34;7.23;;;5.17;;
8104;SDS011;4095;48.942;9.104;2023-05-01T11:41:00;5.47;;;4.80;;
8104;SDS011;4095;48.942;9.104;2023-05-01T11:43:28;5.90;;;4.50;;
8104;SDS011;4095;48.942;9.104;2023-05-01T11:45:54;5.97;;;4.93;;
8104;SDS011;4095;48.942;9.104;2023-05-01T11:48:26;5.87;;;5.37;;
8104;SDS011;4095;48.942;9.104;2023-05-01T11:50:53;5.57;;;5.07;;
8104;SDS011;4095;48.942;9.104;2023-05-01T11:53:19;6.03;;;5.43;;
8104;SDS011;4095;48.942;9.104;2023-05-01T11:55:45;5.80;;;5.20;;
8104;SDS011;4095;48.942;9.104;2023-05-01T11:58:11;6.90;;;5.33;;
8104;SDS011;4095;48.942;9.104;2023-05-01T12:00:40;6.03;;;5.53;;
8104;SDS011;4095;48.942;9.104;2023-05-01T12:03:11;5.47;;;4.97;;
8104;SDS011;4095;48.942;9.104;2023-05-01T12:05:39;5.70;;;5.20;;
8104;SDS011;4095;48.942;9.104;2023-05-01T12:08:16;5.47;;;4.97;;
8104;SDS011;4095;48.942;9.104;2023-05-01T12:10:43;5.60;;;5.10;;
8104;SDS011;4095;48.942;9.104;2023-05-01T12:13:13;5.90;;;5.30;;
8104;SDS011;4095;48.942;9.104;2023-05-01T12:15:41;6.30;;;5.80;;
8104;SDS011;4095;48.942;9.104;2023-05-01T12:18:10;6.40;;;5.80;;
8104;SDS011;4095;48.942;9.104;2023-05-01T12:20:37;6.50;;;5.90;;
8104;SDS011;4095;48.942;9.104;2023-05-01T12:23:05;5.73;;;5.23;;
8104;SDS011;4095;48.942;9.104;2023-05-01T12:25:32;6.33;;;5.30;;
8104;SDS011;4095;48.942;9.104;2023-05-01T12:28:17;5.77;;;5.27;;
8104;SDS011;4095;48.942;9.104;2023-05-01T12:30:44;6.00;;;5.50;;
8104;SDS011;4095;48.942;9.104;2023-05-01T12:33:11;7.13;;;6.00;;
8104;SDS011;4095;48.942;9.104;2023-05-01T12:35:39;6.50;;;5.80;;
8104;SDS011;4095;48.942;9.104;2023-05-01T12:38:16;6.23;;;5.60;;
8104;SDS011;4095;48.942;9.104;2023-05-01T12:40:53;6.17;;;5.50;;
8104;SDS011;4095;48.942;9.104;2023-05-01T12:43:21;6.07;;;5.47;;
8104;SDS011;4095;48.942;9.104;2023-05-01T12:45:57;5.57;;;5.07;;
8104;SDS011;4095;48.942;9.104;2023-05-01T12:48:23;6.17;;;5.57;;
8104;SDS011;4095;48.942;9.104;2023-05-01T12:50:50;6.43;;;5.77;;
8104;SDS011;4095;48.942;9.104;2023-05-01T12:53:22;6.50;;;5.90;;
8104;SDS011;4095;48.942;9.104;2023-05-01T12:55:50;6.17;;;5.60;;
8104;SDS011;4095;48.942;9.104;2023-05-01T12:58:18;6.73;;;6.03;;
8104;SDS011;4095;48.942;9.104;2023-05-01T13:00:44;6.73;;;5.80;;
8104;SDS011;4095;48.942;9.104;2023-05-01T13:03:17;7.33;;;6.07;;
8104;SDS011;4095;48.942;9.104;2023-05-01T13:05:54;6.00;;;5.50;;
8104;SDS011;4095;48.942;9.104;2023-05-01T13:08:30;6.17;;;5.57;;
8104;SDS011;4095;48.942;9.104;2023-05-01T13:10:58;6.70;;;6.10;;
8104;SDS011;4095;48.942;9.104;2023-05-01T13:13:26;6.33;;;5.70;;
8104;SDS011;4095;48.942;9.104;2023-05-01T13:16:01;6.57;;;5.43;;
8104;SDS011;4095;48.942;9.104;2023-05-01T13:18:33;6.70;;;6.00;;
8104;SDS011;4095;48.942;9.104;2023-05-01T13:21:05;6.60;;;6.00;;
8104;SDS011;4095;48.942;9.104;2023-05-01T13:23:32;6.77;;;6.17;;
8104;SDS011;4095;48.942;9.104;2023-05-01T13:25:58;6.37;;;5.77;;
8104;SDS011;4095;48.942;9.104;2023-05-01T13:28:23;7.40;;;6.27;;
8104;SDS011;4095;48.942;9.104;2023-05-01T13:30:49;7.27;;;6.17;;
8104;SDS011;4095;48.942;9.104;2023-05-01T13:33:15;7.73;;;6.33;;
8104;SDS011;4095;48.942;9.104;2023-05-01T13:35:40;6.10;;;5.60;;
8104;SDS011;4095;48.942;9.104;2023-05-01T13:38:07;6.10;;;5.37;;
8104;SDS011;4095;48.942;9.104;2023-05-01T13:40:36;6.17;;;5.67;;
8104;SDS011;4095;48.942;9.104;2023-05-01T13:43:04;6.83;;;5.53;;
8104;SDS011;4095;48.942;9.104;2023-05-01T13:45:36;6.90;;;6.20;;
8104;SDS011;4095;48.942;9.104;2023-05-01T13:48:03;6.40;;;5.80;;
8104;SDS011;4095;48.942;9.104;2023-05-01T13:50:29;7.07;;;6.03;;
8104;SDS011;4095;48.942;9.104;2023-05-01T13:52:54;7.57;;;5.93;;
8104;SDS011;4095;48.942;9.104;2023-05-01T13:55:20;7.00;;;6.10;;
8104;SDS011;4095;48.942;9.104;2023-05-01T13:57:47;6.60;;;6.00;;
8104;SDS011;4095;48.942;9.104;2023-05-01T14:00:13;8.00;;;5.73;;
8104;SDS011;4095;48.942;9.104;2023-05-01T14:02:43;6.27;;;5.67;;
8104;SDS011;4095;48.942;9.104;2023-05-01T14:05:12;6.37;;;5.40;;
8104;SDS011;4095;48.942;9.104;2023-05-01T14:07:43;8.13;;;6.20;;
8104;SDS011;4095;48.942;9.104;2023-05-01T14:10:13;8.03;;;5.50;;
8104;SDS011;4095;48.942;9.104;2023-05-01T14:12:39;7.20;;;6.50;;
8104;SDS011;4095;48.942;9.104;2023-05-01T14:15:07;7.03;;;6.30;;
8104;SDS011;4095;48.942;9.104;2023-05-01T14:17:34;6.57;;;5.97;;
8104;SDS011;4095;48.942;9.104;2023-05-01T14:20:01;8.07;;;7.00;;
8104;SDS011;4095;48.942;9.104;2023-05-01T14:22:42;6.77;;;5.70;;
8104;SDS011;4095;48.942;9.104;2023-05-01T14:25:23;7.83;;;6.40;;
8104;SDS011;4095;48.942;9.104;2023-05-01T14:27:58;6.40;;;5.80;;
8104;SDS011;4095;48.942;9.104;2023-05-01T14:30:29;7.30;;;5.63;;
8104;SDS011;4095;48.942;9.104;2023-05-01T14:33:08;6.73;;;6.13;;
8104;SDS011;4095;48.942;9.104;2023-05-01T14:35:35;6.47;;;5.87;;
8104;SDS011;4095;48.942;9.104;2023-05-01T14:38:11;6.37;;;5.63;;
8104;SDS011;4095;48.942;9.104;2023-05-01T14:40:39;5.47;;;4.97;;
8104;SDS011;4095;48.942;9.104;2023-05-01T14:43:08;6.67;;;5.63;;
8104;SDS011;4095;48.942;9.104;2023-05-01T14:45:36;6.77;;;6.17;;
8104;SDS011;4095;48.942;9.104;2023-05-01T14:48:05;6.23;;;5.63;;
8104;SDS011;4095;48.942;9.104;2023-05-01T14:50:31;7.00;;;5.73;;
8104;SDS011;4095;48.942;9.104;2023-05-01T14:52:57;5.67;;;5.17;;
8104;SDS011;4095;48.942;9.104;2023-05-01T14:55:25;6.47;;;5.33;;
8104;SDS011;4095;48.942;9.104;2023-05-01T14:57:55;5.33;;;4.83;;
8104;SDS011;4095;48.942;9.104;2023-05-01T15:00:21;5.90;;;5.27;;
8104;SDS011;4095;48.942;9.104;2023-05-01T15:02:47;5.77;;;5.10;;
8104;SDS011;4095;48.942;9.104;2023-05-01T15:05:13;7.00;;;5.30;;
8104;SDS011;4095;48.942;9.104;2023-05-01T15:07:39;6.40;;;5.20;;
8104;SDS011;4095;48.942;9.104;2023-05-01T15:10:06;7.83;;;5.43;;
8104;SDS011;4095;48.942;9.104;2023-05-01T15:12:32;5.37;;;4.87;;
8104;SDS011;4095;48.942;9.104;2023-05-01T15:14:57;6.67;;;4.63;;
8104;SDS011;4095;48.942;9.104;2023-05-01T15:17:23;5.03;;;4.63;;
8104;SDS011;4095;48.942;9.104;2023-05-01T15:19:48;7.43;;;6.70;;
8104;SDS011;4095;48.942;9.104;2023-05-01T15:22:14;7.40;;;5.60;;
8104;SDS011;4095;48.942;9.104;2023-05-01T15:24:40;6.33;;;5.17;;
8104;SDS011;4095;48.942;9.104;2023-05-01T15:27:05;5.50;;;4.80;;
8104;SDS011;4095;48.942;9.104;2023-05-01T15:29:32;5.50;;;5.00;;
8104;SDS011;4095;48.942;9.104;2023-05-01T15:31:58;5.83;;;5.13;;
8104;SDS011;4095;48.942;9.104;2023-05-01T15:34:23;5.30;;;4.80;;
8104;SDS011;4095;48.942;9.104;2023-05-01T15:36:49;6.43;;;5.07;;
8104;SDS011;4095;48.942;9.104;2023-05-01T15:39:15;5.23;;;4.43;;
8104;SDS011;4095;48.942;9.104;2023-05-01T15:41:41;5.47;;;5.00;;
8104;SDS011;4095;48.942;9.104;2023-05-01T15:44:07;5.50;;;4.93;;
8104;SDS011;4095;48.942;9.104;2023-05-01T15:46:35;6.17;;;5.33;;
8104;SDS011;4095;48.942;9.104;2023-05-01T15:49:01;5.77;;;4.90;;
8104;SDS011;4095;48.942;9.104;2023-05-01T15:51:28;5.50;;;4.67;;